createdAt,value
2018-08-09T00:00:06.703Z,4.33
2018-08-09T00:02:35.595Z,5.27
2018-08-09T00:05:05.083Z,6.57
2018-08-09T00:07:33.967Z,3.50
2018-08-09T00:10:02.928Z,10.33
2018-08-09T00:12:31.926Z,5.43
2018-08-09T00:15:00.827Z,7.60
2018-08-09T00:17:30.275Z,4.83
2018-08-09T00:19:59.246Z,9.93
2018-08-09T00:22:28.147Z,4.70
2018-08-09T00:24:57.144Z,4.13
2018-08-09T00:27:26.019Z,4.50
2018-08-09T00:29:54.983Z,5.53
2018-08-09T00:32:23.871Z,4.03
2018-08-09T00:34:52.779Z,3.43
2018-08-09T00:37:21.785Z,4.80
2018-08-09T00:39:50.694Z,7.60
2018-08-09T00:42:19.727Z,5.37
2018-08-09T00:44:48.925Z,4.87
2018-08-09T00:47:17.843Z,9.40
2018-08-09T00:49:46.739Z,7.30
2018-08-09T00:52:15.726Z,5.37
2018-08-09T00:54:44.603Z,4.90
2018-08-09T00:57:13.535Z,5.70
2018-08-09T00:59:42.426Z,6.23
2018-08-09T01:02:12.028Z,9.87
2018-08-09T01:04:40.947Z,12.00
2018-08-09T01:07:09.875Z,4.80
2018-08-09T01:09:38.934Z,4.90
2018-08-09T01:12:07.879Z,7.63
2018-08-09T01:14:36.824Z,7.00
2018-08-09T01:17:05.808Z,6.40
2018-08-09T01:19:34.825Z,5.63
2018-08-09T01:22:03.846Z,7.20
2018-08-09T01:24:32.767Z,7.33
2018-08-09T01:27:01.767Z,7.27
2018-08-09T01:29:30.782Z,5.47
2018-08-09T01:31:59.649Z,4.93
2018-08-09T01:34:28.539Z,6.40
2018-08-09T01:36:57.463Z,4.97
2018-08-09T01:39:31.867Z,5.67
2018-08-09T01:42:12.273Z,4.73
2018-08-09T01:44:41.215Z,7.13
2018-08-09T01:47:10.199Z,5.73
2018-08-09T01:49:39.104Z,6.87
2018-08-09T01:52:08.021Z,6.00
2018-08-09T01:54:36.957Z,10.53
2018-08-09T01:57:05.861Z,5.03
2018-08-09T01:59:34.825Z,5.13
2018-08-09T02:02:03.819Z,5.43
2018-08-09T02:04:32.737Z,5.00
2018-08-09T02:07:07.344Z,5.73
2018-08-09T02:09:41.720Z,7.73
2018-08-09T02:12:10.639Z,5.20
2018-08-09T02:14:39.558Z,6.57
2018-08-09T02:17:08.495Z,5.93
2018-08-09T02:19:37.459Z,7.87
2018-08-09T02:22:06.427Z,8.60
2018-08-09T02:24:35.373Z,6.70
2018-08-09T02:27:04.342Z,4.90
2018-08-09T02:29:33.263Z,6.53
2018-08-09T02:32:02.246Z,5.73
2018-08-09T02:34:31.200Z,5.53
2018-08-09T02:37:00.083Z,7.27
2018-08-09T02:39:28.999Z,9.83
2018-08-09T02:41:57.912Z,5.77
2018-08-09T02:44:26.860Z,8.50
2018-08-09T02:46:55.784Z,6.37
2018-08-09T02:49:24.740Z,7.43
2018-08-09T02:51:53.616Z,9.87
2018-08-09T02:54:22.533Z,6.47
2018-08-09T02:56:51.466Z,7.03
2018-08-09T02:59:20.384Z,8.30
2018-08-09T03:01:55.916Z,7.67
2018-08-09T03:04:24.916Z,11.37
2018-08-09T03:06:53.820Z,6.63
2018-08-09T03:09:22.751Z,6.60
2018-08-09T03:11:51.682Z,7.40
2018-08-09T03:14:20.589Z,5.30
2018-08-09T03:16:49.515Z,5.17
2018-08-09T03:19:18.447Z,5.30
2018-08-09T03:21:47.347Z,5.77
2018-08-09T03:24:16.499Z,8.43
2018-08-09T03:26:45.340Z,4.93
2018-08-09T03:29:14.232Z,5.50
2018-08-09T03:31:43.119Z,6.40
2018-08-09T03:34:12.011Z,9.97
2018-08-09T03:36:43.849Z,4.90
2018-08-09T03:39:13.271Z,6.23
2018-08-09T03:41:42.181Z,5.57
2018-08-09T03:44:11.111Z,5.37
2018-08-09T03:46:40.055Z,6.00
2018-08-09T03:49:09.023Z,5.77
2018-08-09T03:51:37.952Z,9.47
2018-08-09T03:54:06.897Z,6.03
2018-08-09T03:56:35.797Z,8.93
2018-08-09T03:59:04.679Z,6.17
2018-08-09T04:01:33.660Z,8.93
2018-08-09T04:04:02.575Z,6.77
2018-08-09T04:06:31.492Z,7.10
2018-08-09T04:09:01.205Z,7.50
2018-08-09T04:11:30.125Z,9.63
2018-08-09T04:13:59.121Z,5.20
2018-08-09T04:16:28.014Z,9.13
2018-08-09T04:18:56.957Z,7.40
2018-08-09T04:21:25.916Z,7.63
2018-08-09T04:23:54.821Z,7.97
2018-08-09T04:26:23.727Z,9.07
2018-08-09T04:28:52.651Z,7.23
2018-08-09T04:31:21.580Z,8.50
2018-08-09T04:33:51.179Z,7.70
2018-08-09T04:36:20.157Z,9.50
2018-08-09T04:38:49.083Z,7.77
2018-08-09T04:41:18.052Z,8.50
2018-08-09T04:43:46.965Z,11.40
2018-08-09T04:46:15.946Z,8.70
2018-08-09T04:48:50.468Z,8.37
2018-08-09T04:51:19.404Z,11.03
2018-08-09T04:53:48.319Z,10.87
2018-08-09T04:56:17.241Z,8.83
2018-08-09T04:58:46.172Z,8.03
2018-08-09T05:01:15.054Z,9.00
2018-08-09T05:03:43.980Z,8.47
2018-08-09T05:06:14.702Z,11.90
2018-08-09T05:08:43.585Z,11.97
2018-08-09T05:11:12.542Z,9.70
2018-08-09T05:13:41.467Z,10.40
2018-08-09T05:16:10.411Z,13.20
2018-08-09T05:18:39.387Z,9.60
2018-08-09T05:21:08.775Z,10.10
2018-08-09T05:23:37.720Z,12.57
2018-08-09T05:26:06.972Z,10.77
2018-08-09T05:28:36.947Z,10.67
2018-08-09T05:31:05.920Z,9.47
2018-08-09T05:33:34.927Z,12.73
2018-08-09T05:36:03.914Z,14.03
2018-08-09T05:38:32.956Z,10.87
2018-08-09T05:41:01.883Z,11.13
2018-08-09T05:43:30.847Z,12.93
2018-08-09T05:45:59.767Z,10.07
2018-08-09T05:48:28.808Z,15.93
2018-08-09T05:50:57.840Z,10.50
2018-08-09T05:53:26.742Z,11.80
2018-08-09T05:55:55.689Z,14.67
2018-08-09T05:58:24.659Z,11.30
2018-08-09T06:00:53.700Z,11.53
2018-08-09T06:03:22.676Z,13.17
2018-08-09T06:05:51.663Z,10.57
2018-08-09T06:08:20.572Z,10.87
2018-08-09T06:10:49.553Z,11.43
2018-08-09T06:13:18.479Z,11.30
2018-08-09T06:15:47.445Z,13.23
2018-08-09T06:18:16.383Z,13.13
2018-08-09T06:20:45.339Z,11.73
2018-08-09T06:23:14.406Z,10.63
2018-08-09T06:25:43.364Z,11.90
2018-08-09T06:28:12.404Z,12.73
2018-08-09T06:30:41.360Z,14.17
2018-08-09T06:33:10.296Z,10.93
2018-08-09T06:35:39.752Z,10.40
2018-08-09T06:38:08.697Z,13.37
2018-08-09T06:40:37.715Z,10.40
2018-08-09T06:43:06.695Z,13.43
2018-08-09T06:45:35.617Z,12.67
2018-08-09T06:48:04.597Z,12.67
2018-08-09T06:50:33.504Z,11.67
2018-08-09T06:53:02.489Z,15.10
2018-08-09T06:55:31.407Z,14.63
2018-08-09T06:58:00.324Z,15.77
2018-08-09T07:00:43.033Z,12.60
2018-08-09T07:03:11.962Z,13.07
2018-08-09T07:05:40.877Z,14.03
2018-08-09T07:08:09.875Z,12.20
2018-08-09T07:10:38.872Z,9.90
2018-08-09T07:13:07.836Z,10.53
2018-08-09T07:15:36.897Z,11.90
2018-08-09T07:18:06.096Z,9.60
2018-08-09T07:20:35.135Z,13.60
2018-08-09T07:23:04.254Z,9.30
2018-08-09T07:25:33.416Z,10.80
2018-08-09T07:28:02.983Z,14.13
2018-08-09T07:30:32.207Z,14.47
2018-08-09T07:33:01.258Z,14.00
2018-08-09T07:35:30.238Z,13.70
2018-08-09T07:37:59.487Z,17.37
2018-08-09T07:40:28.543Z,12.63
2018-08-09T07:42:57.679Z,13.30
2018-08-09T07:45:26.628Z,17.27
2018-08-09T07:47:55.628Z,16.73
2018-08-09T07:50:24.651Z,12.13
2018-08-09T07:52:53.602Z,12.67
2018-08-09T07:55:22.598Z,12.47
2018-08-09T07:57:52.660Z,18.97
2018-08-09T08:00:21.608Z,13.97
2018-08-09T08:02:50.634Z,13.50
2018-08-09T08:05:19.696Z,16.17
2018-08-09T08:07:48.847Z,13.93
2018-08-09T08:10:17.847Z,17.27
2018-08-09T08:12:46.896Z,14.47
2018-08-09T08:15:16.008Z,16.03
2018-08-09T08:17:45.048Z,12.80
2018-08-09T08:20:14.064Z,13.77
2018-08-09T08:22:43.006Z,16.10
2018-08-09T08:25:11.972Z,15.13
2018-08-09T08:27:40.960Z,14.77
2018-08-09T08:30:12.089Z,17.17
2018-08-09T08:32:41.846Z,14.27
2018-08-09T08:35:11.181Z,16.13
2018-08-09T08:37:40.832Z,15.70
2018-08-09T08:40:10.492Z,23.10
2018-08-09T08:42:39.607Z,15.90
2018-08-09T08:45:11.348Z,12.73
2018-08-09T08:47:40.453Z,14.20
2018-08-09T08:50:09.612Z,14.07
2018-08-09T08:52:39.666Z,14.63
2018-08-09T08:55:10.248Z,13.33
2018-08-09T08:57:39.442Z,11.70
2018-08-09T09:00:10.502Z,11.80
2018-08-09T09:02:40.414Z,11.67
2018-08-09T09:05:11.552Z,12.50
2018-08-09T09:07:46.019Z,16.27
2018-08-09T09:10:20.475Z,16.90
2018-08-09T09:12:49.439Z,15.30
2018-08-09T09:15:18.430Z,14.27
2018-08-09T09:17:47.439Z,13.93
2018-08-09T09:20:18.020Z,15.77
2018-08-09T09:22:46.971Z,16.17
2018-08-09T09:25:15.974Z,13.80
2018-08-09T09:27:45.015Z,14.10
2018-08-09T09:30:16.487Z,12.80
2018-08-09T09:32:45.955Z,13.37
2018-08-09T09:35:14.950Z,10.67
2018-08-09T09:37:49.551Z,13.70
2018-08-09T09:40:24.071Z,12.70
2018-08-09T09:42:53.020Z,14.83
2018-08-09T09:45:22.123Z,13.07
2018-08-09T09:47:51.136Z,10.37
2018-08-09T09:50:20.048Z,9.47
2018-08-09T09:52:51.137Z,10.33
2018-08-09T09:55:20.072Z,9.37
2018-08-09T09:57:49.042Z,10.30
2018-08-09T10:00:23.355Z,47.97
2018-08-09T10:02:52.399Z,12.63
2018-08-09T10:05:21.310Z,15.63
2018-08-09T10:07:50.364Z,12.20
2018-08-09T10:10:19.662Z,9.27
2018-08-09T10:12:48.698Z,9.77
2018-08-09T10:15:17.718Z,7.20
2018-08-09T10:17:46.749Z,9.27
2018-08-09T10:20:15.744Z,9.30
2018-08-09T10:22:44.742Z,7.73
2018-08-09T10:25:13.695Z,8.13
2018-08-09T10:27:42.682Z,7.97
2018-08-09T10:30:11.607Z,7.50
2018-08-09T10:32:40.530Z,11.17
2018-08-09T10:35:09.661Z,8.27
2018-08-09T10:37:38.903Z,7.57
2018-08-09T10:40:07.905Z,9.20
2018-08-09T10:42:36.953Z,9.00
2018-08-09T10:45:06.023Z,8.77
2018-08-09T10:47:35.160Z,8.27
2018-08-09T10:50:04.242Z,7.93
2018-08-09T10:52:33.347Z,9.37
2018-08-09T10:55:02.251Z,8.50
2018-08-09T10:57:31.185Z,10.27
2018-08-09T11:00:00.194Z,9.00
2018-08-09T11:02:29.190Z,10.53
2018-08-09T11:04:58.113Z,10.23
2018-08-09T11:07:27.043Z,8.60
2018-08-09T11:09:58.048Z,10.87
2018-08-09T11:12:27.030Z,9.90
2018-08-09T11:14:56.024Z,12.10
2018-08-09T11:17:24.915Z,8.33
2018-08-09T11:19:53.939Z,10.07
2018-08-09T11:22:22.863Z,7.90
2018-08-09T11:24:51.789Z,8.80
2018-08-09T11:27:20.807Z,7.93
2018-08-09T11:29:49.829Z,9.00
2018-08-09T11:32:18.743Z,10.60
2018-08-09T11:34:47.781Z,10.97
2018-08-09T11:37:22.321Z,7.90
2018-08-09T11:39:56.683Z,9.80
2018-08-09T11:42:25.617Z,11.80
2018-08-09T11:44:54.525Z,8.77
2018-08-09T11:47:29.133Z,8.47
2018-08-09T11:49:58.202Z,10.10
2018-08-09T11:52:27.117Z,10.47
2018-08-09T11:54:56.031Z,11.27
2018-08-09T11:57:24.943Z,8.40
2018-08-09T11:59:53.867Z,8.43
2018-08-09T12:02:22.797Z,11.50
2018-08-09T12:04:51.767Z,8.80
2018-08-09T12:07:20.812Z,9.30
2018-08-09T12:10:52.761Z,10.50
2018-08-09T12:13:21.753Z,12.87
2018-08-09T12:15:50.803Z,11.07
2018-08-09T12:18:20.233Z,13.67
2018-08-09T12:20:49.190Z,11.67
2018-08-09T12:23:18.142Z,13.00
2018-08-09T12:25:47.186Z,14.10
2018-08-09T12:28:16.246Z,15.90
2018-08-09T12:30:45.176Z,14.03
2018-08-09T12:33:14.260Z,16.33
2018-08-09T12:35:43.198Z,17.17
2018-08-09T12:38:12.080Z,15.07
2018-08-09T12:40:41.091Z,15.07
2018-08-09T12:43:10.792Z,16.50
2018-08-09T12:45:39.969Z,15.03
2018-08-09T12:48:08.963Z,18.07
2018-08-09T12:50:37.999Z,19.43
2018-08-09T12:53:06.927Z,15.73
2018-08-09T12:55:35.880Z,18.10
2018-08-09T12:58:10.346Z,13.63
2018-08-09T13:00:44.869Z,12.87
2018-08-09T13:03:13.840Z,16.27
2018-08-09T13:05:42.902Z,14.33
2018-08-09T13:08:11.953Z,14.27
2018-08-09T13:10:41.014Z,17.87
2018-08-09T13:13:10.047Z,16.27
2018-08-09T13:15:39.009Z,14.30
2018-08-09T13:18:08.247Z,14.53
2018-08-09T13:20:37.181Z,14.40
2018-08-09T13:23:06.120Z,18.07
2018-08-09T13:25:35.157Z,15.40
2018-08-09T13:28:04.127Z,15.07
2018-08-09T13:30:33.117Z,14.40
2018-08-09T13:33:02.202Z,16.43
2018-08-09T13:35:31.427Z,14.23
2018-08-09T13:38:00.398Z,15.73
2018-08-09T13:40:29.424Z,18.30
2018-08-09T13:42:58.478Z,14.20
2018-08-09T13:45:27.516Z,14.63
2018-08-09T13:47:56.457Z,18.43
2018-08-09T13:50:25.423Z,13.40
2018-08-09T13:52:54.311Z,15.97
2018-08-09T13:55:23.269Z,13.87
2018-08-09T13:57:52.327Z,18.27
2018-08-09T14:00:21.288Z,13.90
2018-08-09T14:02:50.235Z,15.73
2018-08-09T14:05:19.239Z,14.30
2018-08-09T14:07:48.170Z,15.77
2018-08-09T14:10:22.673Z,15.17
2018-08-09T14:12:51.558Z,14.53
2018-08-09T14:15:20.505Z,21.33
2018-08-09T14:17:49.688Z,15.03
2018-08-09T14:20:18.881Z,15.50
2018-08-09T14:22:47.865Z,16.57
2018-08-09T14:25:16.888Z,14.13
2018-08-09T14:27:45.849Z,17.03
2018-08-09T14:30:18.018Z,15.87
2018-08-09T14:32:46.959Z,16.23
2018-08-09T14:35:19.424Z,18.10
2018-08-09T14:37:48.505Z,17.17
2018-08-09T14:40:17.427Z,16.50
2018-08-09T14:42:49.791Z,15.97
2018-08-09T14:45:18.797Z,15.57
2018-08-09T14:47:48.926Z,16.77
2018-08-09T14:50:17.807Z,16.37
2018-08-09T14:52:46.763Z,16.17
2018-08-09T14:55:15.672Z,19.93
2018-08-09T14:57:44.680Z,17.40
2018-08-09T15:00:16.492Z,19.07
2018-08-09T15:02:46.118Z,19.97
2018-08-09T15:05:16.678Z,18.83
2018-08-09T15:07:51.211Z,16.67
2018-08-09T15:10:21.268Z,16.30
2018-08-09T15:12:51.045Z,16.53
2018-08-09T15:15:20.139Z,17.57
2018-08-09T15:17:49.117Z,16.97
2018-08-09T15:20:19.363Z,18.00
2018-08-09T15:22:49.344Z,19.57
2018-08-09T15:25:18.916Z,19.37
2018-08-09T15:27:48.057Z,19.07
2018-08-09T15:30:18.291Z,18.27
2018-08-09T15:32:47.722Z,17.57
2018-08-09T15:35:17.685Z,18.87
2018-08-09T15:37:46.672Z,21.00
2018-08-09T15:40:16.174Z,20.27
2018-08-09T15:42:45.214Z,21.13
2018-08-09T15:45:15.293Z,27.20
2018-08-09T15:47:44.390Z,20.40
2018-08-09T15:50:16.302Z,20.67
2018-08-09T15:52:45.443Z,20.57
2018-08-09T15:55:19.896Z,23.97
2018-08-09T15:57:49.065Z,25.07
2018-08-09T16:00:20.294Z,25.30
2018-08-09T16:02:49.373Z,23.33
2018-08-09T16:05:18.686Z,23.13
2018-08-09T16:07:49.211Z,26.17
2018-08-09T16:10:18.856Z,26.03
2018-08-09T16:12:48.919Z,26.63
2018-08-09T16:15:20.508Z,25.63
2018-08-09T16:17:50.111Z,26.90
2018-08-09T16:20:19.102Z,24.47
2018-08-09T16:22:48.094Z,24.90
2018-08-09T16:25:19.124Z,26.30
2018-08-09T16:27:50.065Z,25.43
2018-08-09T16:30:23.181Z,28.57
2018-08-09T16:32:52.905Z,29.83
2018-08-09T16:35:22.245Z,31.60
2018-08-09T16:37:51.658Z,30.10
2018-08-09T16:40:23.006Z,31.07
2018-08-09T16:42:52.094Z,33.67
2018-08-09T16:45:22.152Z,30.70
2018-08-09T16:47:52.080Z,36.43
2018-08-09T16:50:23.123Z,39.90
2018-08-09T16:52:52.490Z,37.23
2018-08-09T16:55:22.733Z,39.23
2018-08-09T16:57:51.758Z,40.77
2018-08-09T17:00:22.314Z,39.97
2018-08-09T17:02:52.580Z,40.80
2018-08-09T17:08:06.321Z,48.50
2018-08-09T17:10:42.670Z,41.27
2018-08-09T17:13:14.850Z,42.50
2018-08-09T17:15:48.592Z,44.17
2018-08-09T17:18:36.160Z,43.37
2018-08-09T17:21:08.389Z,40.97
2018-08-09T17:26:38.116Z,38.60
2018-08-09T17:29:09.150Z,29.17
2018-08-09T17:31:38.738Z,26.03
2018-08-09T17:34:12.230Z,25.23
2018-08-09T17:36:42.178Z,27.87
2018-08-09T17:39:12.430Z,27.13
2018-08-09T17:41:41.559Z,22.90
2018-08-09T17:44:12.498Z,12.60
2018-08-09T17:46:42.101Z,8.77
2018-08-09T17:49:11.218Z,12.23
2018-08-09T17:51:40.181Z,5.73
2018-08-09T17:54:09.880Z,6.80
2018-08-09T17:56:38.894Z,3.93
2018-08-09T17:59:07.872Z,4.87
2018-08-09T18:01:37.056Z,3.63
2018-08-09T18:04:06.244Z,3.50
2018-08-09T18:06:35.435Z,4.87
2018-08-09T18:09:07.756Z,4.87
2018-08-09T18:11:36.804Z,9.60
2018-08-09T18:14:08.011Z,6.70
2018-08-09T18:16:37.918Z,4.60
2018-08-09T18:19:07.474Z,7.37
2018-08-09T18:21:36.681Z,4.23
2018-08-09T18:24:05.921Z,5.23
2018-08-09T18:26:34.954Z,8.33
2018-08-09T18:29:04.313Z,5.77
2018-08-09T18:31:33.756Z,5.47
2018-08-09T18:34:04.793Z,8.70
2018-08-09T18:36:33.914Z,9.70
2018-08-09T18:39:06.610Z,7.27
2018-08-09T18:41:39.150Z,10.10
2018-08-09T18:44:08.160Z,10.80
2018-08-09T18:46:37.211Z,11.27
2018-08-09T18:49:06.290Z,7.87
2018-08-09T18:51:35.336Z,12.47
2018-08-09T18:54:06.396Z,10.13
2018-08-09T18:56:35.384Z,9.03
2018-08-09T18:59:04.468Z,8.87
2018-08-09T19:01:33.612Z,9.47
2018-08-09T19:04:02.581Z,9.83
2018-08-09T19:06:31.543Z,5.43
2018-08-09T19:09:01.826Z,7.97
2018-08-09T19:11:30.735Z,8.37
2018-08-09T19:13:59.775Z,7.33
2018-08-09T19:16:28.768Z,5.60
2018-08-09T19:18:58.029Z,8.97
2018-08-09T19:21:27.104Z,7.57
2018-08-09T19:23:56.118Z,6.27
2018-08-09T19:26:28.933Z,11.93
2018-08-09T19:28:57.995Z,9.87
2018-08-09T19:31:26.965Z,8.93
2018-08-09T19:33:56.009Z,9.10
2018-08-09T19:36:25.875Z,5.33
2018-08-09T19:38:55.298Z,8.07
2018-08-09T19:41:24.336Z,9.73
2018-08-09T19:43:53.414Z,6.43
2018-08-09T19:46:22.480Z,6.03
2018-08-09T19:48:56.981Z,7.00
2018-08-09T19:51:30.204Z,6.27
2018-08-09T19:53:59.429Z,4.50
2018-08-09T19:56:28.718Z,4.90
2018-08-09T19:58:57.745Z,3.67
2018-08-09T20:01:26.744Z,8.97
2018-08-09T20:03:55.703Z,5.93
2018-08-09T20:06:25.375Z,5.43
2018-08-09T20:08:54.312Z,4.60
2018-08-09T20:11:23.410Z,6.97
2018-08-09T20:13:52.449Z,8.00
2018-08-09T20:16:21.466Z,4.10
2018-08-09T20:18:50.530Z,5.27
2018-08-09T20:21:19.472Z,5.63
2018-08-09T20:23:48.372Z,8.63
2018-08-09T20:26:17.292Z,6.10
2018-08-09T20:28:46.283Z,7.67
2018-08-09T20:31:15.229Z,3.83
2018-08-09T20:33:44.259Z,5.87
2018-08-09T20:36:13.170Z,7.67
2018-08-09T20:38:42.191Z,4.03
2018-08-09T20:41:11.199Z,6.97
2018-08-09T20:43:40.065Z,5.50
2018-08-09T20:46:09.027Z,3.20
2018-08-09T20:48:37.956Z,6.43
2018-08-09T20:51:07.325Z,8.70
2018-08-09T20:53:36.292Z,11.13
2018-08-09T20:56:06.225Z,11.40
2018-08-09T20:58:35.207Z,7.90
2018-08-09T21:01:04.211Z,5.23
2018-08-09T21:03:33.252Z,11.60
2018-08-09T21:06:02.336Z,8.77
2018-08-09T21:08:31.271Z,6.00
2018-08-09T21:11:00.204Z,7.63
2018-08-09T21:13:29.172Z,3.97
2018-08-09T21:15:58.210Z,5.10
2018-08-09T21:18:27.265Z,4.40
2018-08-09T21:20:56.290Z,8.33
2018-08-09T21:23:25.270Z,7.87
2018-08-09T21:25:54.229Z,5.30
2018-08-09T21:28:23.238Z,6.13
2018-08-09T21:30:52.256Z,7.60
2018-08-09T21:33:21.221Z,4.30
2018-08-09T21:35:50.199Z,5.00
2018-08-09T21:38:19.105Z,7.07
2018-08-09T21:40:48.124Z,4.03
2018-08-09T21:43:17.008Z,3.97
2018-08-09T21:45:45.942Z,10.00
2018-08-09T21:48:14.863Z,8.33
2018-08-09T21:50:43.866Z,3.63
2018-08-09T21:53:12.778Z,4.63
2018-08-09T21:55:41.751Z,9.80
2018-08-09T21:58:11.562Z,6.23
2018-08-09T22:00:51.078Z,3.40
2018-08-09T22:03:22.077Z,6.13
2018-08-09T22:05:56.357Z,9.07
2018-08-09T22:08:30.574Z,4.80
2018-08-09T22:11:04.703Z,3.20
2018-08-09T22:13:38.859Z,10.07
2018-08-09T22:16:13.152Z,5.33
2018-08-09T22:18:47.398Z,2.87
2018-08-09T22:21:21.647Z,2.80
2018-08-09T22:23:50.613Z,7.57
2018-08-09T22:26:19.562Z,5.73
2018-08-09T22:28:48.496Z,7.03
2018-08-09T22:31:17.499Z,4.73
2018-08-09T22:33:46.675Z,3.00
2018-08-09T22:36:15.709Z,2.83
2018-08-09T22:38:44.672Z,5.90
2018-08-09T22:41:13.561Z,4.00
2018-08-09T22:43:42.492Z,2.93
2018-08-09T22:46:11.431Z,3.03
2018-08-09T22:48:40.341Z,7.70
2018-08-09T22:51:09.410Z,4.00
2018-08-09T22:53:38.445Z,3.77
2018-08-09T22:56:07.361Z,4.63
2018-08-09T22:58:36.257Z,4.17
2018-08-09T23:01:05.576Z,4.33
2018-08-09T23:03:34.546Z,6.03
2018-08-09T23:06:03.678Z,5.93
2018-08-09T23:08:32.599Z,4.67
2018-08-09T23:11:01.536Z,7.33
2018-08-09T23:13:30.467Z,4.77
2018-08-09T23:15:59.464Z,5.07
2018-08-09T23:18:28.485Z,4.40
2018-08-09T23:20:57.396Z,3.13
2018-08-09T23:23:26.313Z,2.27
2018-08-09T23:25:55.223Z,4.00
2018-08-09T23:28:24.151Z,2.30
2018-08-09T23:30:53.172Z,2.40
2018-08-09T23:33:23.017Z,7.37
2018-08-09T23:35:52.005Z,4.37
2018-08-09T23:38:21.051Z,2.70
2018-08-09T23:40:50.140Z,4.40
2018-08-09T23:43:19.078Z,2.00
2018-08-09T23:45:48.020Z,3.30
2018-08-09T23:48:17.039Z,3.47
2018-08-09T23:50:45.932Z,2.70
2018-08-09T23:53:14.899Z,4.67
2018-08-09T23:55:43.948Z,3.03
2018-08-09T23:58:12.884Z,4.40
